createdAt,value
2022-09-01T00:00:03.022Z,99.90
2022-09-01T00:02:33.937Z,99.90
2022-09-01T00:05:02.251Z,99.90
2022-09-01T00:07:30.721Z,99.90
2022-09-01T00:09:59.747Z,99.90
2022-09-01T00:12:28.218Z,99.90
2022-09-01T00:14:55.589Z,99.90
2022-09-01T00:17:22.967Z,99.90
2022-09-01T00:19:50.365Z,99.90
2022-09-01T00:22:18.073Z,99.90
2022-09-01T00:24:45.621Z,99.90
2022-09-01T00:27:13.036Z,99.90
2022-09-01T00:29:43.448Z,99.90
2022-09-01T00:32:12.591Z,99.90
2022-09-01T00:34:40.761Z,99.90
2022-09-01T00:37:08.310Z,99.90
2022-09-01T00:39:35.797Z,99.90
2022-09-01T00:42:03.715Z,99.90
2022-09-01T00:44:31.905Z,99.90
2022-09-01T00:47:00.189Z,99.90
2022-09-01T00:49:45.004Z,99.90
2022-09-01T00:52:21.283Z,99.90
2022-09-01T00:54:53.804Z,99.90
2022-09-01T00:57:21.781Z,99.90
2022-09-01T00:59:57.709Z,99.90
2022-09-01T01:02:26.288Z,99.90
2022-09-01T01:04:56.623Z,99.90
2022-09-01T01:07:24.539Z,99.90
2022-09-01T01:09:52.033Z,99.90
2022-09-01T01:12:20.105Z,99.90
2022-09-01T01:14:52.215Z,99.90
2022-09-01T01:17:22.467Z,99.90
2022-09-01T01:20:16.404Z,99.90
2022-09-01T01:23:10.009Z,99.90
2022-09-01T01:25:59.321Z,99.90
2022-09-01T01:28:35.622Z,99.90
2022-09-01T01:31:11.888Z,99.90
2022-09-01T01:33:44.450Z,99.90
2022-09-01T01:36:19.329Z,99.90
2022-09-01T01:38:49.563Z,99.90
2022-09-01T01:41:21.962Z,99.90
2022-09-01T01:43:51.027Z,99.90
2022-09-01T01:46:20.740Z,99.90
2022-09-01T01:48:52.329Z,99.90
2022-09-01T01:51:24.998Z,99.90
2022-09-01T01:53:52.873Z,99.90
2022-09-01T01:56:25.715Z,99.90
2022-09-01T01:58:55.978Z,99.90
2022-09-01T02:01:30.014Z,99.90
2022-09-01T02:04:00.297Z,99.90
2022-09-01T02:06:29.358Z,99.90
2022-09-01T02:09:03.074Z,99.90
2022-09-01T02:11:33.640Z,99.90
2022-09-01T02:14:01.308Z,99.90
2022-09-01T02:16:32.722Z,99.90
2022-09-01T02:19:03.384Z,99.90
2022-09-01T02:21:30.793Z,99.90
2022-09-01T02:24:02.422Z,99.90
2022-09-01T02:26:43.286Z,99.90
2022-09-01T02:29:18.997Z,99.90
2022-09-01T02:31:49.445Z,99.90
2022-09-01T02:34:18.761Z,99.90
2022-09-01T02:36:49.452Z,99.90
2022-09-01T02:39:28.126Z,99.90
2022-09-01T02:41:56.304Z,99.90
2022-09-01T02:44:27.842Z,99.90
2022-09-01T02:46:55.967Z,99.90
2022-09-01T02:49:29.697Z,99.90
2022-09-01T02:52:01.504Z,99.90
2022-09-01T02:54:32.263Z,99.90
2022-09-01T02:57:00.983Z,99.90
2022-09-01T02:59:30.353Z,99.90
2022-09-01T03:02:01.323Z,99.90
2022-09-01T03:04:35.339Z,99.90
2022-09-01T03:07:06.055Z,99.90
2022-09-01T03:09:35.109Z,99.90
2022-09-01T03:12:03.851Z,99.90
2022-09-01T03:14:31.984Z,99.90
2022-09-01T03:17:00.642Z,99.90
2022-09-01T03:19:32.368Z,99.90
2022-09-01T03:22:00.131Z,99.90
2022-09-01T03:24:30.194Z,99.90
2022-09-01T03:26:58.391Z,99.90
2022-09-01T03:29:26.367Z,99.90
2022-09-01T03:31:55.254Z,99.90
2022-09-01T03:34:23.783Z,99.90
2022-09-01T03:36:54.894Z,99.90
2022-09-01T03:39:27.931Z,99.90
2022-09-01T03:41:58.087Z,99.90
2022-09-01T03:44:25.820Z,99.90
2022-09-01T03:46:53.682Z,99.90
2022-09-01T03:49:27.725Z,99.90
2022-09-01T03:51:57.430Z,99.90
2022-09-01T03:54:30.202Z,99.90
2022-09-01T03:56:59.882Z,99.90
2022-09-01T03:59:29.872Z,99.90
2022-09-01T04:01:59.912Z,99.90
2022-09-01T04:04:27.731Z,99.90
2022-09-01T04:06:55.377Z,99.90
2022-09-01T04:09:22.844Z,99.90
2022-09-01T04:11:51.629Z,99.90
2022-09-01T04:14:20.515Z,99.90
2022-09-01T04:17:08.398Z,99.90
2022-09-01T04:19:39.350Z,99.90
2022-09-01T04:22:08.052Z,99.90
2022-09-01T04:24:45.654Z,99.90
2022-09-01T04:27:17.981Z,99.90
2022-09-01T04:29:46.970Z,99.90
2022-09-01T04:32:15.783Z,99.90
2022-09-01T04:34:46.891Z,99.90
2022-09-01T04:37:20.305Z,99.90
2022-09-01T04:39:56.202Z,99.90
2022-09-01T04:42:28.960Z,99.90
2022-09-01T04:44:57.685Z,99.90
2022-09-01T04:47:36.158Z,99.90
2022-09-01T04:50:13.798Z,99.90
2022-09-01T04:53:12.011Z,99.90
2022-09-01T04:55:44.315Z,99.90
2022-09-01T04:58:17.813Z,99.90
2022-09-01T05:00:48.460Z,99.90
2022-09-01T05:03:24.021Z,99.90
2022-09-01T05:06:03.877Z,99.90
2022-09-01T05:08:35.232Z,99.90
2022-09-01T05:11:07.925Z,99.90
2022-09-01T05:13:49.155Z,99.90
2022-09-01T05:16:24.817Z,99.90
2022-09-01T05:18:57.022Z,99.90
2022-09-01T05:21:32.813Z,99.90
2022-09-01T05:24:01.501Z,99.90
2022-09-01T05:26:33.932Z,99.90
2022-09-01T05:29:04.653Z,99.90
2022-09-01T05:31:37.727Z,99.90
2022-09-01T05:34:09.583Z,99.90
2022-09-01T05:36:41.914Z,99.90
2022-09-01T05:39:13.602Z,99.90
2022-09-01T05:41:41.241Z,99.90
2022-09-01T05:44:11.166Z,99.90
2022-09-01T05:46:39.905Z,99.90
2022-09-01T05:49:13.526Z,99.90
2022-09-01T05:51:45.599Z,99.90
2022-09-01T05:54:16.364Z,99.90
2022-09-01T05:56:44.994Z,99.90
2022-09-01T05:59:25.823Z,99.90
2022-09-01T06:01:58.843Z,99.90
2022-09-01T06:04:26.907Z,99.90
2022-09-01T06:07:06.695Z,99.90
2022-09-01T06:09:39.837Z,99.90
2022-09-01T06:12:09.193Z,99.90
2022-09-01T06:14:36.663Z,99.90
2022-09-01T06:17:04.287Z,99.90
2022-09-01T06:19:37.158Z,99.90
2022-09-01T06:22:05.488Z,99.90
2022-09-01T06:24:33.460Z,99.90
2022-09-01T06:27:01.438Z,99.90
2022-09-01T06:29:31.220Z,99.90
2022-09-01T06:31:59.820Z,99.90
2022-09-01T06:34:28.099Z,99.90
2022-09-01T06:36:55.487Z,99.90
2022-09-01T06:39:23.957Z,99.90
2022-09-01T06:41:54.764Z,99.90
2022-09-01T06:44:27.207Z,99.90
2022-09-01T06:47:01.146Z,99.90
2022-09-01T06:49:34.751Z,99.90
2022-09-01T06:52:05.675Z,99.90
2022-09-01T06:54:34.268Z,99.90
2022-09-01T06:59:54.032Z,99.90
2022-09-01T07:02:26.725Z,99.90
2022-09-01T07:08:10.964Z,99.90
2022-09-01T07:16:51.810Z,99.90
2022-09-01T07:19:21.784Z,99.90
2022-09-01T07:22:35.318Z,99.90
2022-09-01T07:24:48.353Z,99.90
2022-09-01T07:27:50.522Z,99.90
2022-09-01T07:30:23.988Z,99.90
2022-09-01T07:32:53.869Z,99.90
2022-09-01T07:35:22.539Z,99.90
2022-09-01T07:43:52.946Z,97.40
2022-09-01T07:46:39.738Z,95.50
2022-09-01T07:52:03.779Z,94.60
2022-09-01T07:54:33.923Z,91.80
2022-09-01T07:57:01.818Z,88.30
2022-09-01T07:59:35.671Z,81.60
2022-09-01T08:02:14.293Z,76.80
2022-09-01T08:04:43.601Z,74.70
2022-09-01T08:07:15.503Z,69.60
2022-09-01T08:09:44.361Z,67.90
2022-09-01T08:12:13.655Z,66.20
2022-09-01T08:15:12.718Z,63.90
2022-09-01T08:17:56.767Z,61.00
2022-09-01T08:20:26.297Z,59.20
2022-09-01T08:23:03.404Z,57.90
2022-09-01T08:25:37.081Z,56.60
2022-09-01T08:28:06.067Z,56.70
2022-09-01T08:30:35.893Z,55.10
2022-09-01T08:33:11.177Z,53.40
2022-09-01T08:35:45.873Z,51.50
2022-09-01T08:38:13.622Z,51.50
2022-09-01T08:40:43.424Z,51.80
2022-09-01T08:43:29.481Z,50.60
2022-09-01T08:46:31.123Z,48.90
2022-09-01T08:53:09.009Z,47.30
2022-09-01T08:55:43.293Z,47.70
2022-09-01T08:58:16.638Z,46.80
2022-09-01T09:00:57.893Z,47.20
2022-09-01T09:04:04.052Z,45.30
2022-09-01T09:07:02.874Z,42.70
2022-09-01T09:09:41.328Z,42.40
2022-09-01T09:12:56.766Z,40.70
2022-09-01T09:16:09.399Z,40.90
2022-09-01T09:18:59.734Z,40.40
2022-09-01T09:21:35.491Z,40.40
2022-09-01T09:24:11.492Z,40.10
2022-09-01T09:26:42.951Z,38.20
2022-09-01T09:29:11.544Z,39.10
2022-09-01T09:31:45.958Z,38.50
2022-09-01T09:34:37.504Z,39.80
2022-09-01T09:37:20.029Z,37.30
2022-09-01T09:40:08.701Z,36.10
2022-09-01T09:42:41.716Z,34.90
2022-09-01T09:45:26.646Z,34.80
2022-09-01T09:47:56.394Z,34.60
2022-09-01T09:50:49.253Z,34.30
2022-09-01T09:53:34.640Z,33.00
2022-09-01T09:56:05.189Z,33.60
2022-09-01T09:58:39.468Z,32.40
2022-09-01T10:01:15.225Z,31.70
2022-09-01T10:03:48.993Z,32.50
2022-09-01T10:06:41.954Z,31.50
2022-09-01T10:09:17.763Z,30.80
2022-09-01T10:11:51.447Z,29.90
2022-09-01T10:14:52.726Z,29.60
2022-09-01T10:17:27.971Z,30.70
2022-09-01T10:20:05.143Z,29.90
2022-09-01T10:22:34.609Z,30.10
2022-09-01T10:25:03.343Z,30.40
2022-09-01T10:27:35.483Z,29.30
2022-09-01T10:30:20.077Z,27.40
2022-09-01T10:32:55.796Z,28.00
2022-09-01T10:35:39.819Z,27.70
2022-09-01T10:38:12.130Z,27.70
2022-09-01T10:40:48.986Z,26.20
2022-09-01T10:43:38.294Z,26.30
2022-09-01T10:46:39.067Z,26.40
2022-09-01T10:49:25.739Z,26.90
2022-09-01T10:51:57.071Z,26.30
2022-09-01T10:54:50.851Z,25.80
2022-09-01T10:57:34.489Z,25.50
2022-09-01T11:00:36.194Z,24.80
2022-09-01T11:06:14.397Z,26.00
2022-09-01T11:09:07.771Z,25.60
2022-09-01T11:11:43.385Z,25.80
2022-09-01T11:14:20.851Z,24.80
2022-09-01T11:17:25.564Z,25.50
2022-09-01T11:20:22.247Z,23.70
2022-09-01T11:23:11.625Z,24.90
2022-09-01T11:25:48.505Z,23.80
2022-09-01T11:28:38.052Z,24.50
2022-09-01T11:31:05.978Z,23.20
2022-09-01T11:34:11.353Z,22.80
2022-09-01T11:36:48.246Z,22.90
2022-09-01T11:39:46.345Z,24.10
2022-09-01T11:42:26.768Z,24.30
2022-09-01T11:45:22.129Z,25.60
2022-09-01T11:47:55.973Z,28.00
2022-09-01T11:50:28.207Z,26.90
2022-09-01T11:53:05.505Z,26.10
2022-09-01T11:55:41.660Z,28.00
2022-09-01T11:58:28.882Z,26.20
2022-09-01T12:01:11.391Z,24.80
2022-09-01T12:03:39.046Z,24.40
2022-09-01T12:06:10.832Z,24.40
2022-09-01T12:08:43.203Z,24.70
2022-09-01T12:11:18.438Z,27.00
2022-09-01T12:14:01.717Z,29.30
2022-09-01T12:16:35.652Z,28.60
2022-09-01T12:19:06.265Z,26.30
2022-09-01T12:21:38.857Z,25.30
2022-09-01T12:24:19.933Z,24.50
2022-09-01T12:26:50.943Z,26.60
2022-09-01T12:29:23.287Z,28.10
2022-09-01T12:31:53.080Z,29.20
2022-09-01T12:34:59.058Z,30.50
2022-09-01T12:37:27.680Z,33.30
2022-09-01T12:39:57.635Z,34.90
2022-09-01T12:42:32.437Z,33.80
2022-09-01T12:45:10.739Z,30.70
2022-09-01T12:47:48.019Z,30.90
2022-09-01T12:50:16.740Z,33.00
2022-09-01T12:52:52.636Z,34.00
2022-09-01T12:58:25.091Z,36.80
2022-09-01T13:01:05.275Z,38.30
2022-09-01T13:03:34.571Z,39.30
2022-09-01T13:06:03.667Z,36.90
2022-09-01T13:08:34.171Z,34.90
2022-09-01T13:11:08.110Z,32.30
2022-09-01T13:13:35.764Z,29.90
2022-09-01T13:16:10.535Z,29.60
2022-09-01T13:19:10.915Z,27.50
2022-09-01T13:24:11.036Z,28.00
2022-09-01T13:26:38.419Z,27.90
2022-09-01T13:29:06.028Z,27.70
2022-09-01T13:31:35.774Z,28.30
2022-09-01T13:34:21.732Z,29.10
2022-09-01T13:36:52.552Z,27.70
2022-09-01T13:39:21.415Z,27.80
2022-09-01T13:41:49.667Z,26.90
2022-09-01T13:44:18.716Z,27.90
2022-09-01T13:49:44.956Z,27.20
2022-09-01T13:52:22.747Z,26.80
2022-09-01T13:54:52.149Z,27.40
2022-09-01T13:57:20.117Z,26.70
2022-09-01T13:59:49.578Z,26.70
2022-09-01T14:02:17.053Z,27.80
2022-09-01T14:04:45.852Z,28.40
2022-09-01T14:07:16.083Z,27.30
2022-09-01T14:09:43.518Z,28.30
2022-09-01T14:12:10.979Z,29.80
2022-09-01T14:17:26.419Z,34.00
2022-09-01T14:19:55.323Z,35.20
2022-09-01T14:22:23.183Z,36.40
2022-09-01T14:24:50.531Z,37.70
2022-09-01T14:27:18.667Z,38.70
2022-09-01T14:29:50.637Z,35.40
2022-09-01T14:32:26.813Z,33.50
2022-09-01T14:34:55.990Z,31.90
2022-09-01T14:37:24.314Z,31.20
2022-09-01T14:39:54.370Z,30.80
2022-09-01T14:42:23.975Z,31.00
2022-09-01T14:45:18.847Z,31.40
2022-09-01T14:47:48.370Z,31.90
2022-09-01T14:50:22.749Z,33.50
2022-09-01T14:52:56.231Z,32.80
2022-09-01T14:55:25.561Z,32.60
2022-09-01T14:57:54.930Z,32.10
2022-09-01T15:00:27.758Z,32.30
2022-09-01T15:02:56.422Z,33.10
2022-09-01T15:05:24.897Z,32.60
2022-09-01T15:07:53.547Z,33.50
2022-09-01T15:10:25.688Z,33.50
2022-09-01T15:12:55.702Z,34.80
2022-09-01T15:15:23.526Z,35.90
2022-09-01T15:18:16.184Z,36.20
2022-09-01T15:20:46.670Z,37.40
2022-09-01T15:23:20.628Z,39.20
2022-09-01T15:25:52.018Z,39.80
2022-09-01T15:28:20.773Z,41.10
2022-09-01T15:30:48.310Z,43.00
2022-09-01T15:33:16.321Z,44.30
2022-09-01T15:35:48.414Z,45.60
2022-09-01T15:38:18.079Z,46.20
2022-09-01T15:40:57.085Z,47.90
2022-09-01T15:43:30.516Z,48.20
2022-09-01T15:45:58.694Z,48.70
2022-09-01T15:48:28.289Z,49.50
2022-09-01T15:51:23.539Z,49.40
2022-09-01T15:53:53.319Z,50.40
2022-09-01T15:56:20.967Z,50.80
2022-09-01T15:59:01.074Z,49.70
2022-09-01T16:01:31.946Z,47.80
2022-09-01T16:04:01.132Z,47.30
2022-09-01T16:06:29.102Z,46.50
2022-09-01T16:08:57.336Z,45.00
2022-09-01T16:11:25.917Z,44.50
2022-09-01T16:13:54.157Z,44.10
2022-09-01T16:16:56.692Z,43.10
2022-09-01T16:19:53.991Z,41.80
2022-09-01T16:22:23.451Z,43.10
2022-09-01T16:24:57.787Z,44.40
2022-09-01T16:27:34.057Z,45.70
2022-09-01T16:30:14.494Z,46.70
2022-09-01T16:32:46.142Z,47.50
2022-09-01T16:35:16.857Z,48.40
2022-09-01T16:38:12.547Z,48.80
2022-09-01T16:41:15.905Z,49.70
2022-09-01T16:44:16.083Z,49.90
2022-09-01T16:46:58.816Z,50.00
2022-09-01T16:49:37.322Z,50.60
2022-09-01T16:52:26.507Z,50.40
2022-09-01T16:55:29.545Z,51.80
2022-09-01T16:58:09.101Z,51.60
2022-09-01T17:01:03.309Z,51.30
2022-09-01T17:03:43.223Z,52.30
2022-09-01T17:06:31.790Z,52.30
2022-09-01T17:09:09.240Z,53.30
2022-09-01T17:11:49.122Z,54.20
2022-09-01T17:14:28.006Z,54.30
2022-09-01T17:17:12.351Z,55.00
2022-09-01T17:19:41.120Z,55.30
2022-09-01T17:22:12.603Z,56.00
2022-09-01T17:24:46.250Z,56.50
2022-09-01T17:27:18.468Z,56.90
2022-09-01T17:29:52.069Z,57.00
2022-09-01T17:32:34.654Z,57.50
2022-09-01T17:35:37.741Z,58.20
2022-09-01T17:38:54.105Z,58.20
2022-09-01T17:41:34.234Z,58.70
2022-09-01T17:44:35.651Z,59.70
2022-09-01T17:47:17.622Z,60.20
2022-09-01T17:50:15.179Z,60.40
2022-09-01T17:52:56.285Z,61.70
2022-09-01T17:55:43.406Z,62.80
2022-09-01T17:58:38.914Z,62.90
2022-09-01T18:01:26.489Z,63.30
2022-09-01T18:04:38.395Z,64.20
2022-09-01T18:07:23.459Z,65.20
2022-09-01T18:09:54.490Z,65.30
2022-09-01T18:12:29.215Z,66.30
2022-09-01T18:15:09.842Z,67.10
2022-09-01T18:18:10.423Z,67.10
2022-09-01T18:20:43.648Z,67.90
2022-09-01T18:23:13.755Z,68.60
2022-09-01T18:26:05.690Z,69.10
2022-09-01T18:28:33.165Z,70.10
2022-09-01T18:31:22.617Z,70.30
2022-09-01T18:34:02.306Z,71.00
2022-09-01T18:36:44.773Z,72.00
2022-09-01T18:39:28.478Z,72.50
2022-09-01T18:42:16.964Z,73.10
2022-09-01T18:45:07.414Z,74.00
2022-09-01T18:47:49.372Z,74.90
2022-09-01T18:51:04.217Z,75.60
2022-09-01T18:53:59.170Z,76.20
2022-09-01T18:56:47.058Z,77.30
2022-09-01T18:59:17.586Z,78.00
2022-09-01T19:01:59.674Z,79.00
2022-09-01T19:04:42.287Z,79.80
2022-09-01T19:07:36.697Z,82.00
2022-09-01T19:10:19.382Z,83.90
2022-09-01T19:13:12.067Z,85.40
2022-09-01T19:15:59.962Z,87.10
2022-09-01T19:18:57.307Z,88.30
2022-09-01T19:21:32.201Z,90.10
2022-09-01T19:24:10.207Z,90.50
2022-09-01T19:26:54.719Z,91.60
2022-09-01T19:29:35.163Z,92.30
2022-09-01T19:32:08.567Z,93.20
2022-09-01T19:34:41.381Z,93.80
2022-09-01T19:37:10.809Z,94.60
2022-09-01T19:39:43.768Z,94.60
2022-09-01T19:42:41.379Z,95.40
2022-09-01T19:45:27.987Z,96.90
2022-09-01T19:48:08.349Z,98.80
2022-09-01T19:50:47.412Z,99.90
2022-09-01T19:53:45.173Z,99.90
2022-09-01T19:56:57.383Z,99.90
2022-09-01T19:59:43.715Z,99.90
2022-09-01T20:02:21.186Z,99.90
2022-09-01T20:05:00.506Z,99.90
2022-09-01T20:07:44.563Z,99.90
2022-09-01T20:10:37.025Z,99.90
2022-09-01T20:13:30.079Z,99.90
2022-09-01T20:16:24.118Z,99.90
2022-09-01T20:19:03.931Z,99.90
2022-09-01T20:21:32.918Z,99.90
2022-09-01T20:24:21.842Z,99.90
2022-09-01T20:27:17.759Z,99.90
2022-09-01T20:29:45.037Z,99.90
2022-09-01T20:32:14.511Z,99.90
2022-09-01T20:34:48.003Z,99.90
2022-09-01T20:37:23.969Z,99.90
2022-09-01T20:40:05.050Z,99.90
2022-09-01T20:42:32.498Z,99.90
2022-09-01T20:45:14.905Z,99.90
2022-09-01T20:47:50.406Z,99.90
2022-09-01T20:50:19.603Z,99.90
2022-09-01T20:53:03.729Z,99.90
2022-09-01T20:55:54.511Z,99.90
2022-09-01T20:58:33.492Z,99.90
2022-09-01T21:01:17.860Z,99.90
2022-09-01T21:04:09.579Z,99.90
2022-09-01T21:07:00.291Z,99.90
2022-09-01T21:09:54.032Z,99.90
2022-09-01T21:12:30.796Z,99.90
2022-09-01T21:15:13.332Z,99.90
2022-09-01T21:17:49.805Z,99.90
2022-09-01T21:20:49.954Z,99.90
2022-09-01T21:23:20.113Z,99.90
2022-09-01T21:25:48.598Z,99.90
2022-09-01T21:28:20.240Z,99.90
2022-09-01T21:30:54.837Z,99.90
2022-09-01T21:33:23.490Z,99.90
2022-09-01T21:35:52.967Z,99.90
2022-09-01T21:38:20.526Z,99.90
2022-09-01T21:40:50.829Z,99.90
2022-09-01T21:43:22.315Z,99.90
2022-09-01T21:45:50.177Z,99.90
2022-09-01T21:48:18.561Z,99.90
2022-09-01T21:50:47.563Z,99.90
2022-09-01T21:53:15.330Z,99.90
2022-09-01T21:55:43.347Z,99.90
2022-09-01T21:58:10.912Z,99.90
2022-09-01T22:00:39.668Z,99.90
2022-09-01T22:03:08.023Z,99.90
2022-09-01T22:05:41.141Z,99.90
2022-09-01T22:08:13.403Z,99.90
2022-09-01T22:10:52.041Z,99.90
2022-09-01T22:13:22.630Z,99.90
2022-09-01T22:15:53.609Z,99.90
2022-09-01T22:18:21.920Z,99.90
2022-09-01T22:20:50.114Z,99.90
2022-09-01T22:23:17.561Z,99.90
2022-09-01T22:25:46.616Z,99.90
2022-09-01T22:28:14.463Z,99.90
2022-09-01T22:30:47.556Z,99.90
2022-09-01T22:33:15.909Z,99.90
2022-09-01T22:35:50.422Z,99.90
2022-09-01T22:38:18.643Z,99.90
2022-09-01T22:40:56.321Z,99.90
2022-09-01T22:43:24.864Z,99.90
2022-09-01T22:45:52.972Z,99.90
2022-09-01T22:48:22.754Z,99.90
2022-09-01T22:50:51.750Z,99.90
2022-09-01T22:53:21.189Z,99.90
2022-09-01T22:55:52.009Z,99.90
2022-09-01T22:58:19.848Z,99.90
2022-09-01T23:00:53.387Z,99.90
2022-09-01T23:03:22.260Z,99.90
2022-09-01T23:05:50.398Z,99.90
2022-09-01T23:08:17.967Z,99.90
2022-09-01T23:10:45.556Z,99.90
2022-09-01T23:13:13.518Z,99.90
2022-09-01T23:15:43.435Z,99.90
2022-09-01T23:18:11.274Z,99.90
2022-09-01T23:20:38.708Z,99.90
2022-09-01T23:23:06.046Z,99.90
2022-09-01T23:25:33.400Z,99.90
2022-09-01T23:28:01.599Z,99.90
2022-09-01T23:30:29.463Z,99.90
2022-09-01T23:32:57.819Z,99.90
2022-09-01T23:35:26.895Z,99.90
2022-09-01T23:37:55.437Z,99.90
2022-09-01T23:40:23.116Z,99.90
2022-09-01T23:42:50.485Z,99.90
2022-09-01T23:45:18.012Z,99.90
2022-09-01T23:47:45.368Z,99.90
2022-09-01T23:50:12.866Z,99.90
2022-09-01T23:52:40.343Z,99.90
2022-09-01T23:55:08.295Z,99.90
2022-09-01T23:57:35.682Z,99.90
